createdAt,value
2022-08-22T00:00:44.338Z,19.43
2022-08-22T00:02:43.020Z,21.01
2022-08-22T00:02:47.979Z,21.65
2022-08-22T00:02:52.803Z,21.61
2022-08-22T00:03:02.938Z,20.94
2022-08-22T00:03:31.841Z,19.43
2022-08-22T00:06:10.902Z,19.47
2022-08-22T00:08:47.707Z,19.55
2022-08-22T00:11:33.484Z,19.47
2022-08-22T00:14:14.089Z,19.43
2022-08-22T00:16:53.476Z,19.34
2022-08-22T00:19:26.497Z,19.43
2022-08-22T00:22:07.258Z,19.56
2022-08-22T00:24:55.992Z,19.52
2022-08-22T00:27:38.354Z,19.46
2022-08-22T00:30:16.086Z,19.43
2022-08-22T00:32:49.226Z,19.46
2022-08-22T00:35:26.222Z,19.47
2022-08-22T00:38:18.754Z,19.50
2022-08-22T00:41:07.685Z,19.39
2022-08-22T00:44:08.465Z,19.37
2022-08-22T00:46:54.506Z,19.39
2022-08-22T00:49:56.479Z,19.33
2022-08-22T00:52:26.645Z,19.36
2022-08-22T00:55:11.399Z,19.31
2022-08-22T00:57:59.520Z,19.26
2022-08-22T01:00:36.752Z,19.27
2022-08-22T01:03:19.272Z,19.30
2022-08-22T01:06:19.159Z,19.34
2022-08-22T01:09:21.032Z,19.33
2022-08-22T01:11:57.331Z,19.30
2022-08-22T01:14:39.192Z,19.23
2022-08-22T01:17:15.203Z,19.23
2022-08-22T01:20:00.799Z,19.29
2022-08-22T01:22:48.826Z,19.39
2022-08-22T01:25:32.252Z,19.39
2022-08-22T01:28:19.694Z,19.34
2022-08-22T01:31:21.378Z,19.27
2022-08-22T01:33:57.236Z,19.31
2022-08-22T01:36:39.918Z,19.36
2022-08-22T01:39:34.584Z,19.28
2022-08-22T01:42:23.480Z,19.25
2022-08-22T01:44:59.695Z,19.31
2022-08-22T01:47:37.981Z,19.33
2022-08-22T01:50:29.550Z,19.33
2022-08-22T01:53:23.277Z,19.34
2022-08-22T01:56:13.914Z,19.32
2022-08-22T01:58:55.270Z,19.37
2022-08-22T02:01:49.721Z,19.38
2022-08-22T02:04:30.038Z,19.40
2022-08-22T02:07:16.596Z,19.41
2022-08-22T02:10:21.456Z,19.44
2022-08-22T02:13:04.256Z,19.47
2022-08-22T02:15:43.865Z,19.57
2022-08-22T02:18:29.841Z,19.65
2022-08-22T02:21:18.800Z,19.62
2022-08-22T02:23:56.158Z,19.60
2022-08-22T02:26:40.283Z,19.51
2022-08-22T02:29:14.482Z,19.48
2022-08-22T02:32:05.399Z,19.53
2022-08-22T02:34:42.663Z,19.56
2022-08-22T02:37:20.755Z,19.60
2022-08-22T02:40:06.503Z,19.68
2022-08-22T02:42:51.357Z,19.72
2022-08-22T02:45:22.963Z,19.68
2022-08-22T02:48:23.793Z,19.65
2022-08-22T02:51:18.223Z,19.69
2022-08-22T02:53:48.010Z,19.74
2022-08-22T02:56:21.079Z,19.68
2022-08-22T02:59:24.427Z,19.64
2022-08-22T03:01:52.163Z,19.72
2022-08-22T03:04:31.421Z,19.73
2022-08-22T03:07:06.273Z,19.70
2022-08-22T03:09:43.370Z,19.70
2022-08-22T03:12:43.692Z,19.70
2022-08-22T03:15:24.144Z,19.73
2022-08-22T03:18:26.139Z,19.78
2022-08-22T03:21:00.370Z,19.71
2022-08-22T03:24:16.899Z,19.69
2022-08-22T03:27:10.680Z,19.68
2022-08-22T03:29:45.098Z,19.66
2022-08-22T03:32:48.820Z,19.65
2022-08-22T03:35:34.296Z,19.65
2022-08-22T03:38:33.671Z,19.70
2022-08-22T03:41:26.857Z,19.64
2022-08-22T03:44:15.494Z,19.58
2022-08-22T03:47:09.144Z,19.60
2022-08-22T03:50:09.731Z,19.61
2022-08-22T03:53:18.562Z,19.66
2022-08-22T03:56:15.433Z,19.68
2022-08-22T03:59:19.892Z,19.64
2022-08-22T04:02:41.998Z,19.62
2022-08-22T04:05:28.795Z,19.65
2022-08-22T04:08:33.528Z,19.71
2022-08-22T04:11:32.042Z,19.77
2022-08-22T04:13:59.006Z,19.84
2022-08-22T04:17:07.179Z,19.88
2022-08-22T04:20:02.046Z,19.98
2022-08-22T04:22:53.567Z,20.12
2022-08-22T04:25:36.792Z,20.27
2022-08-22T04:28:22.760Z,20.24
2022-08-22T04:31:00.247Z,20.27
2022-08-22T04:33:45.682Z,20.40
2022-08-22T04:36:29.578Z,20.55
2022-08-22T04:39:05.911Z,20.67
2022-08-22T04:41:46.809Z,20.65
2022-08-22T04:44:34.721Z,20.71
2022-08-22T04:47:18.821Z,20.80
2022-08-22T04:49:57.343Z,20.84
2022-08-22T04:52:37.158Z,20.94
2022-08-22T04:55:30.057Z,21.04
2022-08-22T04:58:14.302Z,21.22
2022-08-22T05:00:49.847Z,21.30
2022-08-22T05:03:20.228Z,21.41
2022-08-22T05:05:49.641Z,21.53
2022-08-22T05:08:25.332Z,21.61
2022-08-22T05:10:54.168Z,21.60
2022-08-22T05:13:40.066Z,21.68
2022-08-22T05:16:16.207Z,21.80
2022-08-22T05:18:48.200Z,21.94
2022-08-22T05:21:18.494Z,22.01
2022-08-22T05:23:53.030Z,22.08
2022-08-22T05:26:21.852Z,22.12
2022-08-22T05:28:53.631Z,22.17
2022-08-22T05:31:38.013Z,22.32
2022-08-22T05:34:10.515Z,22.33
2022-08-22T05:36:43.279Z,22.31
2022-08-22T05:39:25.415Z,22.34
2022-08-22T05:41:57.139Z,22.34
2022-08-22T05:44:28.411Z,22.42
2022-08-22T05:47:14.221Z,22.47
2022-08-22T05:50:13.762Z,22.50
2022-08-22T05:52:50.616Z,22.54
2022-08-22T05:55:55.750Z,22.50
2022-08-22T05:58:50.072Z,22.47
2022-08-22T06:01:29.891Z,22.44
2022-08-22T06:04:26.026Z,22.39
2022-08-22T06:06:57.763Z,22.46
2022-08-22T06:09:35.279Z,22.45
2022-08-22T06:12:21.754Z,22.37
2022-08-22T06:15:21.649Z,22.28
2022-08-22T06:17:52.175Z,22.27
2022-08-22T06:20:36.960Z,22.21
2022-08-22T06:23:08.730Z,22.17
2022-08-22T06:25:43.547Z,22.23
2022-08-22T06:28:16.878Z,22.22
2022-08-22T06:30:46.137Z,22.21
2022-08-22T06:33:22.671Z,22.29
2022-08-22T06:36:11.663Z,22.31
2022-08-22T06:39:03.409Z,22.22
2022-08-22T06:41:33.649Z,22.21
2022-08-22T06:44:04.441Z,22.27
2022-08-22T06:46:36.471Z,22.33
2022-08-22T06:49:06.900Z,22.39
2022-08-22T06:51:38.425Z,22.44
2022-08-22T06:54:11.957Z,22.56
2022-08-22T06:56:42.315Z,22.72
2022-08-22T06:59:16.423Z,22.76
2022-08-22T07:01:52.270Z,22.81
2022-08-22T07:04:26.893Z,23.06
2022-08-22T07:06:56.691Z,23.17
2022-08-22T07:09:35.020Z,23.26
2022-08-22T07:12:11.133Z,23.44
2022-08-22T07:14:44.363Z,23.70
2022-08-22T07:17:46.887Z,24.06
2022-08-22T07:20:31.607Z,24.42
2022-08-22T07:23:11.282Z,24.66
2022-08-22T07:26:24.384Z,24.83
2022-08-22T07:29:01.127Z,24.96
2022-08-22T07:31:50.109Z,25.04
2022-08-22T07:34:40.420Z,25.14
2022-08-22T07:37:37.076Z,25.59
2022-08-22T07:40:22.496Z,26.08
2022-08-22T07:42:55.154Z,26.30
2022-08-22T07:45:30.763Z,26.62
2022-08-22T07:48:08.636Z,26.82
2022-08-22T07:50:43.914Z,27.12
2022-08-22T07:53:34.917Z,27.53
2022-08-22T07:56:04.972Z,27.90
2022-08-22T07:58:39.886Z,28.26
2022-08-22T08:01:11.050Z,28.49
2022-08-22T08:03:39.424Z,28.61
2022-08-22T08:06:09.768Z,28.82
2022-08-22T08:08:42.211Z,28.60
2022-08-22T08:11:12.565Z,28.60
2022-08-22T08:13:44.042Z,28.67
2022-08-22T08:16:17.727Z,28.67
2022-08-22T08:18:48.830Z,28.41
2022-08-22T08:21:33.384Z,28.50
2022-08-22T08:24:02.518Z,28.31
2022-08-22T08:27:17.296Z,28.11
2022-08-22T08:29:56.551Z,27.86
2022-08-22T08:32:25.400Z,27.69
2022-08-22T08:34:53.375Z,27.63
2022-08-22T08:37:26.536Z,27.77
2022-08-22T08:39:59.620Z,28.02
2022-08-22T08:43:10.775Z,28.16
2022-08-22T08:46:14.721Z,28.30
2022-08-22T08:48:59.957Z,28.89
2022-08-22T08:51:37.086Z,28.82
2022-08-22T08:54:43.667Z,29.08
2022-08-22T08:57:13.430Z,29.12
2022-08-22T08:59:44.158Z,29.30
2022-08-22T09:05:52.267Z,29.68
2022-08-22T09:08:50.666Z,29.84
2022-08-22T09:11:35.927Z,29.83
2022-08-22T09:14:27.063Z,29.47
2022-08-22T09:17:08.244Z,29.24
2022-08-22T09:23:21.033Z,28.83
2022-08-22T09:26:01.543Z,28.60
2022-08-22T09:28:58.220Z,28.35
2022-08-22T09:31:44.908Z,28.16
2022-08-22T09:34:25.847Z,27.87
2022-08-22T09:37:05.596Z,27.74
2022-08-22T09:40:05.776Z,27.68
2022-08-22T09:40:16.606Z,29.58
2022-08-22T09:42:50.682Z,27.48
2022-08-22T09:45:34.795Z,27.41
2022-08-22T09:48:08.522Z,27.46
2022-08-22T09:50:52.670Z,27.59
2022-08-22T09:54:18.699Z,27.53
2022-08-22T09:56:46.008Z,27.43
2022-08-22T09:59:48.373Z,27.19
2022-08-22T10:02:18.654Z,26.96
2022-08-22T10:05:40.513Z,26.88
2022-08-22T10:08:29.891Z,26.70
2022-08-22T10:11:12.602Z,26.43
2022-08-22T10:13:57.347Z,26.30
2022-08-22T10:16:37.573Z,26.17
2022-08-22T10:19:49.660Z,25.91
2022-08-22T10:22:30.214Z,25.85
2022-08-22T10:25:13.340Z,25.96
2022-08-22T10:27:40.709Z,26.03
2022-08-22T10:30:13.253Z,26.11
2022-08-22T10:32:49.770Z,26.17
2022-08-22T10:35:33.970Z,26.29
2022-08-22T10:38:12.314Z,26.41
2022-08-22T10:40:55.106Z,26.43
2022-08-22T10:43:33.643Z,26.35
2022-08-22T10:46:06.825Z,26.42
2022-08-22T10:49:17.901Z,26.58
2022-08-22T10:51:52.787Z,26.65
2022-08-22T10:54:32.886Z,26.75
2022-08-22T10:57:22.790Z,26.78
2022-08-22T11:00:16.660Z,26.73
2022-08-22T11:03:16.668Z,26.72
2022-08-22T11:05:51.231Z,26.78
2022-08-22T11:08:48.995Z,26.86
2022-08-22T11:11:16.248Z,26.94
2022-08-22T11:13:57.440Z,27.01
2022-08-22T11:16:55.151Z,27.12
2022-08-22T11:19:40.782Z,27.20
2022-08-22T11:22:36.161Z,27.32
2022-08-22T11:25:44.632Z,27.45
2022-08-22T11:28:30.455Z,27.46
2022-08-22T11:31:09.325Z,27.85
2022-08-22T11:33:50.043Z,28.05
2022-08-22T11:36:47.421Z,28.29
2022-08-22T11:39:28.930Z,28.23
2022-08-22T11:42:12.940Z,28.07
2022-08-22T11:44:52.415Z,27.80
2022-08-22T11:47:26.574Z,27.70
2022-08-22T11:50:02.004Z,27.72
2022-08-22T11:53:07.747Z,27.72
2022-08-22T11:56:01.175Z,27.61
2022-08-22T11:58:45.870Z,27.81
2022-08-22T12:01:18.913Z,28.13
2022-08-22T12:10:50.508Z,28.44
2022-08-22T12:13:34.715Z,28.28
2022-08-22T12:16:18.535Z,28.32
2022-08-22T12:19:07.887Z,28.34
2022-08-22T12:21:53.399Z,28.37
2022-08-22T12:24:53.088Z,28.32
2022-08-22T12:27:40.417Z,28.18
2022-08-22T12:30:36.544Z,27.95
2022-08-22T12:33:23.208Z,27.73
2022-08-22T12:36:02.800Z,27.54
2022-08-22T12:38:54.166Z,27.40
2022-08-22T12:41:58.622Z,27.32
2022-08-22T12:44:48.559Z,27.23
2022-08-22T12:47:49.372Z,27.10
2022-08-22T12:50:31.514Z,27.03
2022-08-22T12:53:32.653Z,26.98
2022-08-22T12:56:12.545Z,26.80
2022-08-22T12:58:55.096Z,26.63
2022-08-22T13:01:34.126Z,26.38
2022-08-22T13:04:08.931Z,26.30
2022-08-22T13:06:35.907Z,26.34
2022-08-22T13:09:13.082Z,26.33
2022-08-22T13:11:41.461Z,26.28
2022-08-22T13:14:18.563Z,26.14
2022-08-22T13:16:52.126Z,26.08
2022-08-22T13:19:29.724Z,25.95
2022-08-22T13:22:04.945Z,25.89
2022-08-22T13:24:52.667Z,25.84
2022-08-22T13:27:32.053Z,25.72
2022-08-22T13:30:17.076Z,25.63
2022-08-22T13:32:51.523Z,25.51
2022-08-22T13:35:30.938Z,25.39
2022-08-22T13:38:17.968Z,25.31
2022-08-22T13:40:57.254Z,25.11
2022-08-22T13:43:30.381Z,24.99
2022-08-22T13:46:02.088Z,24.87
2022-08-22T13:48:51.471Z,24.73
2022-08-22T13:51:41.515Z,24.65
2022-08-22T13:54:39.312Z,24.39
2022-08-22T13:57:41.374Z,24.20
2022-08-22T14:00:29.921Z,24.05
2022-08-22T14:03:08.131Z,23.95
2022-08-22T14:05:41.820Z,23.83
2022-08-22T14:08:18.518Z,23.64
2022-08-22T14:11:02.163Z,23.53
2022-08-22T14:13:45.486Z,23.50
2022-08-22T14:16:12.550Z,23.56
2022-08-22T14:18:50.346Z,23.51
2022-08-22T14:21:17.957Z,23.38
2022-08-22T14:23:50.699Z,23.24
2022-08-22T14:26:34.315Z,23.12
2022-08-22T14:29:12.329Z,23.12
2022-08-22T14:31:39.991Z,23.18
2022-08-22T14:34:12.362Z,23.16
2022-08-22T14:37:17.708Z,23.03
2022-08-22T14:39:50.746Z,22.98
2022-08-22T14:42:23.571Z,23.02
2022-08-22T14:45:00.911Z,23.01
2022-08-22T14:47:55.406Z,23.00
2022-08-22T14:50:53.101Z,23.09
2022-08-22T14:53:20.205Z,23.13
2022-08-22T14:56:18.000Z,23.09
2022-08-22T14:58:58.491Z,23.02
2022-08-22T15:01:29.789Z,23.01
2022-08-22T15:04:08.151Z,23.04
2022-08-22T15:06:51.122Z,22.97
2022-08-22T15:09:56.860Z,23.04
2022-08-22T15:12:34.352Z,23.05
2022-08-22T15:15:07.389Z,23.09
2022-08-22T15:17:46.011Z,23.08
2022-08-22T15:20:49.253Z,23.07
2022-08-22T15:23:24.074Z,23.11
2022-08-22T15:26:07.400Z,23.15
2022-08-22T15:28:52.211Z,23.20
2022-08-22T15:31:23.765Z,23.31
2022-08-22T15:33:52.061Z,23.27
2022-08-22T15:36:26.201Z,23.25
2022-08-22T15:39:33.908Z,23.21
2022-08-22T15:42:03.426Z,23.16
2022-08-22T15:44:40.277Z,23.21
2022-08-22T15:47:52.246Z,23.14
2022-08-22T15:50:35.251Z,23.06
2022-08-22T15:53:24.762Z,23.01
2022-08-22T15:56:05.562Z,22.98
2022-08-22T15:58:43.914Z,22.97
2022-08-22T16:01:24.296Z,23.00
2022-08-22T16:04:07.953Z,22.99
2022-08-22T16:06:47.672Z,23.00
2022-08-22T16:09:31.339Z,23.01
2022-08-22T16:12:02.375Z,23.00
2022-08-22T16:14:35.737Z,23.06
2022-08-22T16:17:27.454Z,23.02
2022-08-22T16:20:19.539Z,23.10
2022-08-22T16:22:59.095Z,23.12
2022-08-22T16:25:44.897Z,23.03
2022-08-22T16:28:36.113Z,22.97
2022-08-22T16:31:44.249Z,22.94
2022-08-22T16:34:40.340Z,22.97
2022-08-22T16:37:18.416Z,22.87
2022-08-22T16:40:09.989Z,22.79
2022-08-22T16:42:49.791Z,22.74
2022-08-22T16:49:14.085Z,22.66
2022-08-22T16:52:28.425Z,22.57
2022-08-22T16:56:02.257Z,22.49
2022-08-22T16:59:22.390Z,22.43
2022-08-22T17:02:28.915Z,22.42
2022-08-22T17:05:38.848Z,22.41
2022-08-22T17:08:32.505Z,22.25
2022-08-22T17:11:28.745Z,22.13
2022-08-22T17:14:19.060Z,22.06
2022-08-22T17:17:39.472Z,21.99
2022-08-22T17:21:09.807Z,21.92
2022-08-22T17:23:50.581Z,21.83
2022-08-22T17:27:00.725Z,21.81
2022-08-22T17:29:55.298Z,21.72
2022-08-22T17:32:45.067Z,21.64
2022-08-22T17:35:58.873Z,21.60
2022-08-22T17:38:54.558Z,21.65
2022-08-22T17:41:42.724Z,21.61
2022-08-22T17:44:29.234Z,21.55
2022-08-22T17:47:07.907Z,21.41
2022-08-22T17:49:57.723Z,21.36
2022-08-22T17:52:52.024Z,21.33
2022-08-22T17:55:57.141Z,21.45
2022-08-22T17:58:44.177Z,21.34
2022-08-22T18:01:44.612Z,21.28
2022-08-22T18:04:36.074Z,21.17
2022-08-22T18:07:17.112Z,21.10
2022-08-22T18:10:18.484Z,21.12
2022-08-22T18:13:12.354Z,21.19
2022-08-22T18:15:50.986Z,21.24
2022-08-22T18:18:31.338Z,21.24
2022-08-22T18:21:35.051Z,21.20
2022-08-22T18:24:28.209Z,21.14
2022-08-22T18:27:30.021Z,21.12
2022-08-22T18:30:12.602Z,21.00
2022-08-22T18:32:55.633Z,21.03
2022-08-22T18:35:34.434Z,21.05
2022-08-22T18:38:30.390Z,21.03
2022-08-22T18:41:08.322Z,21.05
2022-08-22T18:43:48.159Z,20.89
2022-08-22T18:46:53.928Z,20.85
2022-08-22T18:49:44.195Z,20.86
2022-08-22T18:52:24.073Z,20.82
2022-08-22T18:55:17.283Z,20.73
2022-08-22T18:58:11.615Z,20.67
2022-08-22T19:01:05.537Z,20.63
2022-08-22T19:03:49.734Z,20.51
2022-08-22T19:06:43.967Z,20.47
2022-08-22T19:09:41.393Z,20.52
2022-08-22T19:12:50.463Z,20.52
2022-08-22T19:15:35.614Z,20.55
2022-08-22T19:18:52.221Z,20.50
2022-08-22T19:21:47.927Z,20.43
2022-08-22T19:24:22.310Z,20.38
2022-08-22T19:27:08.466Z,20.35
2022-08-22T19:29:36.917Z,20.37
2022-08-22T19:32:12.930Z,20.36
2022-08-22T19:34:47.127Z,20.37
2022-08-22T19:37:38.768Z,20.24
2022-08-22T19:40:11.165Z,20.16
2022-08-22T19:42:51.271Z,20.19
2022-08-22T19:45:29.938Z,20.19
2022-08-22T19:48:13.610Z,20.15
2022-08-22T19:50:45.125Z,20.19
2022-08-22T19:53:39.998Z,20.31
2022-08-22T19:56:37.761Z,20.43
2022-08-22T19:59:34.394Z,20.43
2022-08-22T20:02:08.026Z,20.29
2022-08-22T20:04:55.758Z,20.25
2022-08-22T20:08:04.296Z,20.27
2022-08-22T20:11:09.434Z,20.37
2022-08-22T20:14:00.311Z,20.31
2022-08-22T20:17:06.038Z,20.24
2022-08-22T20:23:06.621Z,20.13
2022-08-22T20:25:53.591Z,20.20
2022-08-22T20:29:23.291Z,20.17
2022-08-22T20:35:16.873Z,20.19
2022-08-22T20:38:06.328Z,20.23
2022-08-22T20:41:11.296Z,20.28
2022-08-22T20:43:46.606Z,20.39
2022-08-22T20:49:16.780Z,20.37
2022-08-22T20:51:58.439Z,20.31
2022-08-22T20:54:41.293Z,20.33
2022-08-22T20:57:23.913Z,20.34
2022-08-22T21:00:07.862Z,20.35
2022-08-22T21:02:49.223Z,20.41
2022-08-22T21:05:18.706Z,20.47
2022-08-22T21:07:53.751Z,20.56
2022-08-22T21:10:49.405Z,20.56
2022-08-22T21:13:26.347Z,20.42
2022-08-22T21:16:03.140Z,20.47
2022-08-22T21:18:46.083Z,20.51
2022-08-22T21:21:27.081Z,20.47
2022-08-22T21:24:00.832Z,20.47
2022-08-22T21:26:51.299Z,20.57
2022-08-22T21:29:32.847Z,20.48
2022-08-22T21:32:27.862Z,20.52
2022-08-22T21:34:56.703Z,20.48
2022-08-22T21:37:34.908Z,20.46
2022-08-22T21:40:17.824Z,20.53
2022-08-22T21:43:10.271Z,20.49
2022-08-22T21:45:53.726Z,20.44
2022-08-22T21:48:35.941Z,20.48
2022-08-22T21:51:26.166Z,20.44
2022-08-22T21:54:25.885Z,20.32
2022-08-22T21:57:00.822Z,20.42
2022-08-22T21:59:58.989Z,20.37
2022-08-22T22:02:40.908Z,20.28
2022-08-22T22:05:13.439Z,20.20
2022-08-22T22:07:46.686Z,20.12
2022-08-22T22:10:20.614Z,20.12
2022-08-22T22:12:52.560Z,20.14
2022-08-22T22:15:25.763Z,20.14
2022-08-22T22:17:55.057Z,20.03
2022-08-22T22:20:33.683Z,20.01
2022-08-22T22:23:08.184Z,19.99
2022-08-22T22:25:47.308Z,19.98
2022-08-22T22:28:32.602Z,19.94
2022-08-22T22:31:01.624Z,19.88
2022-08-22T22:33:32.578Z,19.89
2022-08-22T22:36:06.940Z,19.82
2022-08-22T22:38:35.631Z,19.86
2022-08-22T22:41:09.475Z,19.91
2022-08-22T22:43:37.546Z,19.78
2022-08-22T22:46:05.676Z,19.73
2022-08-22T22:48:33.986Z,19.81
2022-08-22T22:51:09.641Z,19.79
2022-08-22T22:53:43.044Z,19.66
2022-08-22T22:56:23.143Z,19.52
2022-08-22T22:59:01.166Z,19.54
2022-08-22T23:01:40.727Z,19.61
2022-08-22T23:04:08.891Z,19.64
2022-08-22T23:06:36.410Z,19.65
2022-08-22T23:09:06.848Z,19.56
2022-08-22T23:11:34.945Z,19.58
2022-08-22T23:14:08.875Z,19.57
2022-08-22T23:16:39.586Z,19.62
2022-08-22T23:19:12.665Z,19.69
2022-08-22T23:21:41.127Z,19.63
2022-08-22T23:24:11.872Z,19.52
2022-08-22T23:26:39.982Z,19.49
2022-08-22T23:29:08.365Z,19.47
2022-08-22T23:31:51.814Z,19.43
2022-08-22T23:34:25.818Z,19.40
2022-08-22T23:37:10.814Z,19.41
2022-08-22T23:39:50.959Z,19.43
2022-08-22T23:42:25.492Z,19.48
2022-08-22T23:44:56.041Z,19.55
2022-08-22T23:47:23.847Z,19.49
2022-08-22T23:49:52.162Z,19.46
2022-08-22T23:52:21.658Z,19.50
2022-08-22T23:54:57.979Z,19.39
2022-08-22T23:57:35.370Z,19.38
